Bradenton, Florida
Current Conditions -  °F | °C
As of 2:53 PM on Monday 26 Jan 2015 (Local Time) from KSRQ Reporting Station
Broken Clouds Broken Clouds  
Wind Chill: 66°   Ceiling: 6000
Heat Index: 66°   Visibility: 10mi
Dew Point: 49°   Wind: 22mph
Humidity: 54%   Direction: 300°WNW
Pressure: 29.89"   Gusts: 31mph
Location:  27.5°N, 82.58°W
Report Text: KSRQ 261953Z AUTO 30019G27KT 10SM SCT043 SCT050 BKN060 19/09 A2989 RMK AO2 PK WND 32029/1933 SLP121 T01890094
Loading
Personal Weather Stations






























Interactive Weather Map New forecast layout! Learn more

10-Day Weather Forecast

Advertisements
Track Severe Weather on mobile